createdAt,value
2019-01-13T00:00:23.208Z,95151.57
2019-01-13T00:01:26.770Z,95159.41
2019-01-13T00:02:30.735Z,95158.11
2019-01-13T00:03:34.330Z,95168.08
2019-01-13T00:04:37.818Z,95155.25
2019-01-13T00:05:41.308Z,95155.09
2019-01-13T00:06:44.799Z,95158.53
2019-01-13T00:07:48.358Z,95159.36
2019-01-13T00:08:51.879Z,95161.48
2019-01-13T00:09:55.303Z,95146.20
2019-01-13T00:10:58.801Z,95155.52
2019-01-13T00:12:02.296Z,95154.66
2019-01-13T00:13:05.792Z,95158.55
2019-01-13T00:14:09.309Z,95154.41
2019-01-13T00:15:12.858Z,95158.95
2019-01-13T00:16:16.286Z,95171.12
2019-01-13T00:17:19.778Z,95161.13
2019-01-13T00:18:23.274Z,95152.23
2019-01-13T00:19:26.816Z,95160.54
2019-01-13T00:20:30.345Z,95167.33
2019-01-13T00:21:33.896Z,95153.66
2019-01-13T00:22:37.471Z,95162.33
2019-01-13T00:23:40.893Z,95157.77
2019-01-13T00:24:44.355Z,95157.06
2019-01-13T00:25:47.842Z,95157.01
2019-01-13T00:26:51.316Z,95159.36
2019-01-13T00:27:54.750Z,95158.26
2019-01-13T00:28:58.403Z,95159.44
2019-01-13T00:30:01.931Z,95139.01
2019-01-13T00:31:05.506Z,95153.28
2019-01-13T00:32:08.995Z,95161.72
2019-01-13T00:33:12.427Z,95153.83
2019-01-13T00:34:15.855Z,95165.92
2019-01-13T00:35:19.303Z,95151.33
2019-01-13T00:36:22.764Z,95152.63
2019-01-13T00:37:26.192Z,95151.05
2019-01-13T00:38:29.759Z,95156.00
2019-01-13T00:39:33.170Z,95163.16
2019-01-13T00:40:36.683Z,95171.16
2019-01-13T00:41:40.175Z,95156.59
2019-01-13T00:42:43.664Z,95165.80
2019-01-13T00:43:47.091Z,95157.82
2019-01-13T00:44:50.624Z,95159.66
2019-01-13T00:45:54.024Z,95158.66
2019-01-13T00:46:57.443Z,95165.16
2019-01-13T00:48:00.872Z,95155.37
2019-01-13T00:49:04.728Z,95156.17
2019-01-13T00:50:13.308Z,95160.66
2019-01-13T00:51:16.761Z,95156.30
2019-01-13T00:52:20.176Z,95152.99
2019-01-13T00:53:23.612Z,95154.95
2019-01-13T00:54:27.035Z,95156.89
2019-01-13T00:55:30.578Z,95149.63
2019-01-13T00:56:33.984Z,95157.72
2019-01-13T00:57:37.542Z,95163.80
2019-01-13T00:58:40.976Z,95156.64
2019-01-13T00:59:44.399Z,95153.66
2019-01-13T01:00:47.816Z,95152.82
2019-01-13T01:01:51.498Z,95163.72
2019-01-13T01:02:55.056Z,95169.87
2019-01-13T01:03:58.566Z,95159.02
2019-01-13T01:05:01.987Z,95152.75
2019-01-13T01:06:05.747Z,95151.23
2019-01-13T01:07:09.409Z,95157.72
2019-01-13T01:08:14.637Z,95156.17
2019-01-13T01:09:18.133Z,95164.25
2019-01-13T01:10:21.797Z,95153.52
2019-01-13T01:11:25.307Z,95165.20
2019-01-13T01:12:28.894Z,95167.14
2019-01-13T01:13:32.460Z,95167.29
2019-01-13T01:14:35.946Z,95162.48
2019-01-13T01:15:39.515Z,95155.77
2019-01-13T01:16:42.948Z,95167.03
2019-01-13T01:17:46.912Z,95176.95
2019-01-13T01:18:50.407Z,95172.41
2019-01-13T01:19:53.825Z,95172.24
2019-01-13T01:20:57.311Z,95168.23
2019-01-13T01:22:00.764Z,95168.64
2019-01-13T01:23:04.653Z,95147.50
2019-01-13T01:24:08.139Z,95171.34
2019-01-13T01:25:13.704Z,95163.39
2019-01-13T01:26:17.186Z,95157.42
2019-01-13T01:27:20.648Z,95160.73
2019-01-13T01:28:24.136Z,95159.27
2019-01-13T01:29:27.558Z,95157.96
2019-01-13T01:30:33.544Z,95153.89
2019-01-13T01:31:36.196Z,95162.16
2019-01-13T01:32:39.771Z,95151.47
2019-01-13T01:33:43.334Z,95158.43
2019-01-13T01:34:46.768Z,95154.48
2019-01-13T01:35:50.200Z,95147.74
2019-01-13T01:36:54.303Z,95156.30
2019-01-13T01:37:57.718Z,95163.27
2019-01-13T01:39:01.175Z,95166.85
2019-01-13T01:40:07.659Z,95158.05
2019-01-13T01:41:11.181Z,95161.50
2019-01-13T01:42:14.649Z,95177.09
2019-01-13T01:43:18.146Z,95166.14
2019-01-13T01:44:21.584Z,95165.73
2019-01-13T01:45:25.143Z,95168.23
2019-01-13T01:46:28.663Z,95167.47
2019-01-13T01:47:32.095Z,95154.05
2019-01-13T01:48:35.528Z,95155.53
2019-01-13T01:49:38.949Z,95163.02
2019-01-13T01:50:42.507Z,95166.98
2019-01-13T01:51:45.937Z,95162.38
2019-01-13T01:52:49.392Z,95157.65
2019-01-13T01:53:52.807Z,95151.58
2019-01-13T01:54:56.299Z,95151.45
2019-01-13T01:55:59.726Z,95155.60
2019-01-13T01:57:03.219Z,95155.58
2019-01-13T01:58:06.812Z,95153.16
2019-01-13T01:59:10.243Z,95161.44
2019-01-13T02:00:21.763Z,95159.97
2019-01-13T02:01:25.257Z,95167.76
2019-01-13T02:02:28.816Z,95160.48
2019-01-13T02:03:32.263Z,95164.16
2019-01-13T02:04:35.751Z,95159.20
2019-01-13T02:05:39.172Z,95167.09
2019-01-13T02:06:42.701Z,95164.95
2019-01-13T02:07:46.277Z,95165.62
2019-01-13T02:08:49.699Z,95170.88
2019-01-13T02:09:53.120Z,95158.24
2019-01-13T02:10:56.550Z,95160.02
2019-01-13T02:11:59.980Z,95160.67
2019-01-13T02:13:03.496Z,95163.91
2019-01-13T02:14:06.990Z,95163.25
2019-01-13T02:15:15.989Z,95162.03
2019-01-13T02:16:19.556Z,95173.72
2019-01-13T02:17:23.057Z,95168.94
2019-01-13T02:18:26.522Z,95169.30
2019-01-13T02:19:30.016Z,95159.30
2019-01-13T02:20:33.443Z,95161.77
2019-01-13T02:21:36.876Z,95167.25
2019-01-13T02:22:40.432Z,95170.45
2019-01-13T02:23:43.875Z,95159.90
2019-01-13T02:24:47.301Z,95160.31
2019-01-13T02:25:50.792Z,95166.61
2019-01-13T02:26:54.283Z,95175.07
2019-01-13T02:27:57.821Z,95169.46
2019-01-13T02:29:01.312Z,95168.63
2019-01-13T02:30:07.858Z,95168.56
2019-01-13T02:31:11.286Z,95166.46
2019-01-13T02:32:14.703Z,95157.05
2019-01-13T02:33:18.213Z,95174.42
2019-01-13T02:34:21.646Z,95171.99
2019-01-13T02:35:25.189Z,95159.02
2019-01-13T02:36:28.608Z,95166.86
2019-01-13T02:37:32.099Z,95166.27
2019-01-13T02:38:35.620Z,95163.73
2019-01-13T02:39:39.121Z,95170.86
2019-01-13T02:40:42.547Z,95170.76
2019-01-13T02:41:46.047Z,95166.08
2019-01-13T02:42:49.869Z,95160.78
2019-01-13T02:43:53.362Z,95157.83
2019-01-13T02:44:56.785Z,95166.50
2019-01-13T02:46:00.216Z,95153.34
2019-01-13T02:47:03.709Z,95170.98
2019-01-13T02:48:07.290Z,95162.84
2019-01-13T02:49:10.731Z,95158.82
2019-01-13T02:50:14.704Z,95151.38
2019-01-13T02:51:18.193Z,95157.77
2019-01-13T02:52:21.612Z,95159.65
2019-01-13T02:53:25.125Z,95158.88
2019-01-13T02:54:28.543Z,95166.27
2019-01-13T02:55:31.967Z,95162.59
2019-01-13T02:56:35.388Z,95163.80
2019-01-13T02:57:38.971Z,95169.50
2019-01-13T02:58:42.388Z,95166.81
2019-01-13T02:59:45.838Z,95155.34
2019-01-13T03:00:56.857Z,95157.40
2019-01-13T03:01:54.868Z,95149.09
2019-01-13T03:02:58.375Z,95158.47
2019-01-13T03:04:01.871Z,95151.60
2019-01-13T03:05:08.640Z,95155.66
2019-01-13T03:06:12.208Z,95153.79
2019-01-13T03:07:15.709Z,95151.25
2019-01-13T03:08:19.287Z,95155.44
2019-01-13T03:09:22.793Z,95153.79
2019-01-13T03:10:26.289Z,95154.61
2019-01-13T03:11:29.856Z,95154.95
2019-01-13T03:12:33.293Z,95156.45
2019-01-13T03:13:36.835Z,95150.50
2019-01-13T03:14:40.315Z,95152.36
2019-01-13T03:15:43.883Z,95151.03
2019-01-13T03:16:47.311Z,95151.73
2019-01-13T03:17:51.513Z,95154.27
2019-01-13T03:18:55.010Z,95154.80
2019-01-13T03:19:58.507Z,95152.52
2019-01-13T03:21:02.007Z,95158.82
2019-01-13T03:22:05.563Z,95153.22
2019-01-13T03:23:09.081Z,95148.88
2019-01-13T03:24:12.576Z,95155.66
2019-01-13T03:25:18.243Z,95159.91
2019-01-13T03:26:21.663Z,95157.78
2019-01-13T03:27:25.157Z,95159.43
2019-01-13T03:28:28.873Z,95148.27
2019-01-13T03:29:32.297Z,95152.71
2019-01-13T03:30:35.792Z,95154.42
2019-01-13T03:31:39.288Z,95145.33
2019-01-13T03:32:42.713Z,95160.31
2019-01-13T03:33:46.228Z,95151.91
2019-01-13T03:34:49.659Z,95152.39
2019-01-13T03:35:53.137Z,95151.63
2019-01-13T03:36:56.502Z,95151.94
2019-01-13T03:38:00.021Z,95159.54
2019-01-13T03:39:04.986Z,95156.44
2019-01-13T03:40:11.512Z,95156.70
2019-01-13T03:41:15.075Z,95156.44
2019-01-13T03:42:18.504Z,95152.80
2019-01-13T03:43:21.939Z,95154.53
2019-01-13T03:44:25.444Z,95149.75
2019-01-13T03:45:28.974Z,95149.34
2019-01-13T03:46:32.402Z,95152.80
2019-01-13T03:47:35.893Z,95157.66
2019-01-13T03:48:39.406Z,95149.16
2019-01-13T03:49:42.829Z,95156.20
2019-01-13T03:50:46.255Z,95149.89
2019-01-13T03:51:49.677Z,95153.25
2019-01-13T03:52:53.543Z,95151.77
2019-01-13T03:53:56.953Z,95145.05
2019-01-13T03:55:00.381Z,95143.77
2019-01-13T03:56:03.871Z,95148.41
2019-01-13T03:57:07.296Z,95149.98
2019-01-13T03:58:11.251Z,95145.45
2019-01-13T03:59:14.747Z,95143.52
2019-01-13T04:00:20.318Z,95149.23
2019-01-13T04:01:23.743Z,95147.73
2019-01-13T04:02:27.183Z,95150.45
2019-01-13T04:03:30.678Z,95156.48
2019-01-13T04:04:34.166Z,95150.27
2019-01-13T04:05:37.586Z,95140.98
2019-01-13T04:06:41.001Z,95148.84
2019-01-13T04:07:44.572Z,95148.17
2019-01-13T04:08:48.078Z,95155.55
2019-01-13T04:09:51.574Z,95147.19
2019-01-13T04:10:55.063Z,95151.94
2019-01-13T04:11:58.491Z,95150.62
2019-01-13T04:13:01.979Z,95147.19
2019-01-13T04:14:05.493Z,95149.09
2019-01-13T04:15:15.027Z,95145.36
2019-01-13T04:16:18.822Z,95153.16
2019-01-13T04:17:22.415Z,95154.99
2019-01-13T04:18:26.005Z,95151.84
2019-01-13T04:19:29.433Z,95155.20
2019-01-13T04:20:32.929Z,95150.98
2019-01-13T04:21:36.408Z,95149.05
2019-01-13T04:22:39.830Z,95145.15
2019-01-13T04:23:43.343Z,95147.15
2019-01-13T04:24:46.764Z,95151.39
2019-01-13T04:25:50.203Z,95145.15
2019-01-13T04:26:53.626Z,95152.13
2019-01-13T04:27:57.126Z,95151.69
2019-01-13T04:29:00.572Z,95140.34
2019-01-13T04:30:06.672Z,95150.20
2019-01-13T04:31:10.163Z,95148.69
2019-01-13T04:32:13.662Z,95147.10
2019-01-13T04:33:17.175Z,95145.87
2019-01-13T04:34:20.612Z,95149.09
2019-01-13T04:35:24.033Z,95144.50
2019-01-13T04:36:27.454Z,95154.10
2019-01-13T04:37:30.888Z,95151.63
2019-01-13T04:38:34.329Z,95157.18
2019-01-13T04:39:37.793Z,95150.74
2019-01-13T04:40:41.224Z,95153.21
2019-01-13T04:41:44.710Z,95152.39
2019-01-13T04:42:48.142Z,95151.72
2019-01-13T04:43:51.597Z,95149.53
2019-01-13T04:44:55.030Z,95147.69
2019-01-13T04:45:58.526Z,95159.92
2019-01-13T04:47:01.961Z,95151.30
2019-01-13T04:48:05.522Z,95154.70
2019-01-13T04:49:08.965Z,95150.67
2019-01-13T04:50:14.224Z,95145.34
2019-01-13T04:51:17.712Z,95153.55
2019-01-13T04:52:21.207Z,95145.44
2019-01-13T04:53:24.696Z,95149.75
2019-01-13T04:54:28.138Z,95148.71
2019-01-13T04:55:31.637Z,95143.51
2019-01-13T04:56:35.120Z,95147.34
2019-01-13T04:57:38.608Z,95153.36
2019-01-13T04:58:42.038Z,95148.73
2019-01-13T04:59:45.483Z,95143.84
2019-01-13T05:00:48.907Z,95147.34
2019-01-13T05:01:52.464Z,95143.09
2019-01-13T05:02:55.965Z,95141.64
2019-01-13T05:03:59.387Z,95139.45
2019-01-13T05:05:02.903Z,95138.59
2019-01-13T05:06:06.322Z,95145.42
2019-01-13T05:07:09.746Z,95144.73
2019-01-13T05:08:13.241Z,95145.48
2019-01-13T05:09:16.670Z,95134.67
2019-01-13T05:10:21.784Z,95134.60
2019-01-13T05:11:25.205Z,95141.45
2019-01-13T05:12:28.638Z,95137.48
2019-01-13T05:13:32.056Z,95134.67
2019-01-13T05:14:35.500Z,95143.16
2019-01-13T05:15:38.948Z,95148.02
2019-01-13T05:16:42.371Z,95147.41
2019-01-13T05:17:45.963Z,95142.62
2019-01-13T05:18:49.464Z,95147.56
2019-01-13T05:19:52.933Z,95149.33
2019-01-13T05:20:56.422Z,95145.78
2019-01-13T05:21:59.906Z,95150.56
2019-01-13T05:23:03.329Z,95148.58
2019-01-13T05:24:06.830Z,95138.57
2019-01-13T05:25:10.562Z,95146.39
2019-01-13T05:26:13.951Z,95153.42
2019-01-13T05:27:17.370Z,95147.28
2019-01-13T05:28:20.795Z,95145.63
2019-01-13T05:29:24.246Z,95148.38
2019-01-13T05:30:27.678Z,95143.37
2019-01-13T05:31:31.110Z,95146.87
2019-01-13T05:32:34.542Z,95141.66
2019-01-13T05:33:37.964Z,95144.00
2019-01-13T05:34:41.407Z,95137.02
2019-01-13T05:35:44.903Z,95145.22
2019-01-13T05:36:48.334Z,95144.07
2019-01-13T05:37:51.834Z,95137.51
2019-01-13T05:38:55.281Z,95154.41
2019-01-13T05:39:58.730Z,95148.30
2019-01-13T05:41:02.167Z,95152.34
2019-01-13T05:42:05.668Z,95147.21
2019-01-13T05:43:09.231Z,95142.90
2019-01-13T05:44:12.659Z,95145.42
2019-01-13T05:45:18.406Z,95139.61
2019-01-13T05:46:21.851Z,95131.54
2019-01-13T05:47:25.268Z,95144.41
2019-01-13T05:48:28.765Z,95144.55
2019-01-13T05:49:32.256Z,95146.34
2019-01-13T05:50:36.070Z,95141.47
2019-01-13T05:51:39.503Z,95137.84
2019-01-13T05:52:43.978Z,95139.47
2019-01-13T05:53:47.367Z,95144.89
2019-01-13T05:54:50.788Z,95137.28
2019-01-13T05:55:54.236Z,95144.00
2019-01-13T05:56:57.824Z,95152.75
2019-01-13T05:58:01.324Z,95152.20
2019-01-13T05:59:04.875Z,95155.63
2019-01-13T06:00:11.359Z,95156.39
2019-01-13T06:01:14.870Z,95152.98
2019-01-13T06:02:18.295Z,95152.20
2019-01-13T06:03:21.714Z,95154.28
2019-01-13T06:04:25.131Z,95151.52
2019-01-13T06:05:28.619Z,95151.05
2019-01-13T06:06:32.160Z,95149.33
2019-01-13T06:07:35.704Z,95155.65
2019-01-13T06:08:39.202Z,95146.92
2019-01-13T06:09:42.626Z,95141.94
2019-01-13T06:10:46.116Z,95140.70
2019-01-13T06:11:49.558Z,95146.27
2019-01-13T06:12:53.064Z,95159.19
2019-01-13T06:13:56.656Z,95154.88
2019-01-13T06:15:00.129Z,95155.97
2019-01-13T06:16:03.650Z,95166.38
2019-01-13T06:17:07.107Z,95157.01
2019-01-13T06:18:10.611Z,95150.37
2019-01-13T06:19:14.088Z,95154.95
2019-01-13T06:20:22.654Z,95155.84
2019-01-13T06:21:26.179Z,95147.49
2019-01-13T06:22:29.594Z,95152.29
2019-01-13T06:23:33.022Z,95158.66
2019-01-13T06:24:36.441Z,95155.35
2019-01-13T06:25:39.870Z,95155.65
2019-01-13T06:26:43.314Z,95142.77
2019-01-13T06:27:46.875Z,95150.84
2019-01-13T06:28:50.368Z,95150.42
2019-01-13T06:29:53.784Z,95148.94
2019-01-13T06:30:57.249Z,95143.79
2019-01-13T06:32:00.691Z,95142.20
2019-01-13T06:33:04.113Z,95138.60
2019-01-13T06:34:07.547Z,95146.48
2019-01-13T06:35:11.036Z,95139.35
2019-01-13T06:36:14.533Z,95143.79
2019-01-13T06:37:17.984Z,95144.74
2019-01-13T06:38:21.468Z,95144.07
2019-01-13T06:39:24.958Z,95147.62
2019-01-13T06:40:28.409Z,95144.42
2019-01-13T06:41:31.819Z,95137.16
2019-01-13T06:42:36.193Z,95142.58
2019-01-13T06:43:39.632Z,95135.38
2019-01-13T06:44:43.188Z,95138.05
2019-01-13T06:45:46.633Z,95143.73
2019-01-13T06:46:50.068Z,95129.48
2019-01-13T06:47:53.635Z,95128.73
2019-01-13T06:48:58.308Z,95133.40
2019-01-13T06:50:01.757Z,95124.10
2019-01-13T06:51:05.248Z,95125.73
2019-01-13T06:52:08.691Z,95118.28
2019-01-13T06:53:12.112Z,95126.00
2019-01-13T06:54:15.550Z,95136.27
2019-01-13T06:55:19.078Z,95130.98
2019-01-13T06:56:22.516Z,95132.51
2019-01-13T06:57:26.003Z,95134.27
2019-01-13T06:58:29.448Z,95133.54
2019-01-13T06:59:32.939Z,95131.27
2019-01-13T07:00:36.428Z,95132.77
2019-01-13T07:01:39.878Z,95129.22
2019-01-13T07:02:43.301Z,95125.25
2019-01-13T07:03:46.722Z,95128.53
2019-01-13T07:04:50.145Z,95132.97
2019-01-13T07:05:53.562Z,95131.75
2019-01-13T07:06:57.005Z,95133.94
2019-01-13T07:08:00.432Z,95139.69
2019-01-13T07:09:05.437Z,95135.05
2019-01-13T07:10:10.918Z,95134.67
2019-01-13T07:11:14.349Z,95133.05
2019-01-13T07:12:17.782Z,95146.05
2019-01-13T07:13:21.319Z,95144.55
2019-01-13T07:14:24.747Z,95142.44
2019-01-13T07:15:28.289Z,95136.75
2019-01-13T07:16:31.784Z,95141.73
2019-01-13T07:17:35.291Z,95128.73
2019-01-13T07:18:38.714Z,95132.09
2019-01-13T07:19:42.123Z,95121.55
2019-01-13T07:20:45.636Z,95130.10
2019-01-13T07:21:49.067Z,95123.81
2019-01-13T07:22:52.494Z,95126.75
2019-01-13T07:23:55.918Z,95127.02
2019-01-13T07:24:59.356Z,95126.29
2019-01-13T07:26:02.785Z,95135.72
2019-01-13T07:27:06.233Z,95126.83
2019-01-13T07:28:09.662Z,95122.03
2019-01-13T07:29:13.152Z,95119.79
2019-01-13T07:30:22.243Z,95125.13
2019-01-13T07:31:25.965Z,95124.42
2019-01-13T07:32:29.476Z,95122.64
2019-01-13T07:33:32.911Z,95122.23
2019-01-13T07:34:36.328Z,95131.67
2019-01-13T07:35:39.760Z,95122.98
2019-01-13T07:36:43.206Z,95130.18
2019-01-13T07:37:46.705Z,95124.89
2019-01-13T07:38:50.129Z,95113.61
2019-01-13T07:39:53.626Z,95113.55
2019-01-13T07:40:57.119Z,95113.20
2019-01-13T07:42:00.573Z,95101.66
2019-01-13T07:43:04.123Z,95115.95
2019-01-13T07:44:07.633Z,95111.16
2019-01-13T07:45:13.516Z,95110.33
2019-01-13T07:46:16.922Z,95115.39
2019-01-13T07:47:20.435Z,95116.63
2019-01-13T07:48:23.900Z,95113.30
2019-01-13T07:49:27.318Z,95109.03
2019-01-13T07:50:30.735Z,95103.83
2019-01-13T07:51:34.223Z,95107.54
2019-01-13T07:52:37.754Z,95107.25
2019-01-13T07:53:41.184Z,95106.71
2019-01-13T07:54:44.620Z,95102.27
2019-01-13T07:55:48.102Z,95098.28
2019-01-13T07:56:51.682Z,95105.39
2019-01-13T07:57:55.201Z,95100.95
2019-01-13T07:58:58.621Z,95106.56
2019-01-13T08:00:02.050Z,95107.94
2019-01-13T08:01:06.015Z,95101.52
2019-01-13T08:02:09.587Z,95099.59
2019-01-13T08:03:13.042Z,95098.98
2019-01-13T08:04:16.533Z,95102.31
2019-01-13T08:05:20.031Z,95094.33
2019-01-13T08:06:23.522Z,95102.00
2019-01-13T08:07:26.961Z,95100.83
2019-01-13T08:08:30.401Z,95105.39
2019-01-13T08:09:33.822Z,95090.62
2019-01-13T08:10:37.314Z,95099.23
2019-01-13T08:11:40.915Z,95102.41
2019-01-13T08:12:44.987Z,95107.52
2019-01-13T08:13:48.409Z,95108.50
2019-01-13T08:14:51.838Z,95114.48
2019-01-13T08:15:55.250Z,95108.69
2019-01-13T08:16:58.743Z,95106.55
2019-01-13T08:18:02.314Z,95107.14
2019-01-13T08:19:05.896Z,95103.55
2019-01-13T08:20:15.102Z,95096.91
2019-01-13T08:21:18.603Z,95093.81
2019-01-13T08:22:22.053Z,95094.09
2019-01-13T08:23:25.487Z,95095.44
2019-01-13T08:24:29.204Z,95094.76
2019-01-13T08:25:32.659Z,95100.28
2019-01-13T08:26:36.096Z,95084.84
2019-01-13T08:27:39.587Z,95096.36
2019-01-13T08:28:43.036Z,95085.74
2019-01-13T08:29:46.468Z,95098.88
2019-01-13T08:30:49.971Z,95093.55
2019-01-13T08:31:53.469Z,95098.07
2019-01-13T08:32:57.038Z,95088.48
2019-01-13T08:34:00.567Z,95091.44
2019-01-13T08:35:04.256Z,95094.92
2019-01-13T08:36:07.822Z,95094.52
2019-01-13T08:37:11.325Z,95089.91
2019-01-13T08:38:14.824Z,95093.55
2019-01-13T08:39:18.273Z,95087.94
2019-01-13T08:40:21.839Z,95102.33
2019-01-13T08:41:25.330Z,95090.32
2019-01-13T08:42:28.746Z,95089.38
2019-01-13T08:43:32.246Z,95086.14
2019-01-13T08:44:35.701Z,95090.81
2019-01-13T08:45:39.130Z,95083.14
2019-01-13T08:46:42.553Z,95079.52
2019-01-13T08:47:46.049Z,95080.27
2019-01-13T08:48:49.473Z,95077.09
2019-01-13T08:49:52.905Z,95070.66
2019-01-13T08:50:56.399Z,95073.03
2019-01-13T08:51:59.850Z,95072.66
2019-01-13T08:53:03.271Z,95067.59
2019-01-13T08:54:06.725Z,95070.08
2019-01-13T08:55:10.503Z,95065.51
2019-01-13T08:56:14.010Z,95065.51
2019-01-13T08:57:17.456Z,95072.77
2019-01-13T08:58:20.876Z,95068.42
2019-01-13T08:59:24.302Z,95076.80
2019-01-13T09:00:29.382Z,95071.59
2019-01-13T09:01:32.811Z,95068.02
2019-01-13T09:02:36.337Z,95070.98
2019-01-13T09:03:39.755Z,95074.66
2019-01-13T09:04:43.277Z,95073.44
2019-01-13T09:05:46.725Z,95070.30
2019-01-13T09:06:50.151Z,95074.20
2019-01-13T09:07:53.720Z,95069.77
2019-01-13T09:08:57.201Z,95077.84
2019-01-13T09:10:00.690Z,95064.97
2019-01-13T09:11:04.276Z,95077.30
2019-01-13T09:12:07.839Z,95071.56
2019-01-13T09:13:11.347Z,95079.36
2019-01-13T09:14:14.807Z,95076.05
2019-01-13T09:15:20.475Z,95074.20
2019-01-13T09:16:24.549Z,95073.27
2019-01-13T09:17:27.996Z,95082.41
2019-01-13T09:18:31.424Z,95082.72
2019-01-13T09:19:34.978Z,95085.81
2019-01-13T09:20:38.546Z,95088.65
2019-01-13T09:21:42.094Z,95087.00
2019-01-13T09:22:45.830Z,95086.54
2019-01-13T09:23:49.262Z,95088.78
2019-01-13T09:24:52.704Z,95083.72
2019-01-13T09:25:56.131Z,95080.17
2019-01-13T09:26:59.586Z,95086.19
2019-01-13T09:28:03.640Z,95079.41
2019-01-13T09:29:07.248Z,95073.45
2019-01-13T09:30:16.461Z,95083.36
2019-01-13T09:31:19.893Z,95073.80
2019-01-13T09:32:23.335Z,95073.94
2019-01-13T09:33:26.769Z,95076.13
2019-01-13T09:34:30.207Z,95073.36
2019-01-13T09:35:33.785Z,95076.70
2019-01-13T09:36:37.216Z,95065.94
2019-01-13T09:37:40.787Z,95066.66
2019-01-13T09:38:44.283Z,95072.19
2019-01-13T09:39:47.716Z,95061.19
2019-01-13T09:40:51.275Z,95065.35
2019-01-13T09:41:54.702Z,95065.12
2019-01-13T09:42:59.092Z,95059.08
2019-01-13T09:44:02.593Z,95067.38
2019-01-13T09:45:09.156Z,95057.55
2019-01-13T09:46:12.790Z,95070.13
2019-01-13T09:47:16.423Z,95052.81
2019-01-13T09:48:20.057Z,95056.71
2019-01-13T09:49:23.553Z,95052.73
2019-01-13T09:50:27.068Z,95044.44
2019-01-13T09:51:30.495Z,95041.98
2019-01-13T09:52:33.953Z,95040.13
2019-01-13T09:53:37.400Z,95042.09
2019-01-13T09:54:40.939Z,95038.63
2019-01-13T09:55:44.422Z,95032.37
2019-01-13T09:56:47.849Z,95028.68
2019-01-13T09:57:51.534Z,95020.55
2019-01-13T09:58:54.968Z,95023.16
2019-01-13T09:59:58.392Z,95017.13
2019-01-13T10:01:01.881Z,95018.28
2019-01-13T10:02:05.446Z,95020.47
2019-01-13T10:03:09.152Z,95017.91
2019-01-13T10:04:12.589Z,95018.59
2019-01-13T10:05:16.152Z,95011.11
2019-01-13T10:06:19.714Z,95009.23
2019-01-13T10:07:23.144Z,95006.45
2019-01-13T10:08:26.587Z,94999.84
2019-01-13T10:09:30.019Z,94997.48
2019-01-13T10:10:33.587Z,94992.14
2019-01-13T10:11:37.080Z,94980.42
2019-01-13T10:12:40.653Z,94993.22
2019-01-13T10:13:44.193Z,94986.31
2019-01-13T10:14:47.638Z,94987.47
2019-01-13T10:15:51.112Z,94984.44
2019-01-13T10:16:54.692Z,94994.84
2019-01-13T10:17:58.176Z,94981.62
2019-01-13T10:19:01.694Z,94979.56
2019-01-13T10:20:08.452Z,94990.94
2019-01-13T10:21:12.013Z,94980.20
2019-01-13T10:22:15.506Z,94974.20
2019-01-13T10:23:18.932Z,94979.30
2019-01-13T10:24:22.375Z,94979.80
2019-01-13T10:25:25.894Z,94973.45
2019-01-13T10:26:29.381Z,94965.20
2019-01-13T10:27:32.883Z,94969.53
2019-01-13T10:28:36.316Z,94973.38
2019-01-13T10:29:39.754Z,94961.69
2019-01-13T10:30:43.199Z,94957.14
2019-01-13T10:31:46.688Z,94958.84
2019-01-13T10:32:54.680Z,94955.63
2019-01-13T10:33:55.406Z,94951.72
2019-01-13T10:34:58.879Z,94945.06
2019-01-13T10:36:02.390Z,94950.92
2019-01-13T10:37:05.955Z,94945.28
2019-01-13T10:38:09.389Z,94954.79
2019-01-13T10:39:12.821Z,94939.36
2019-01-13T10:40:21.560Z,94938.66
2019-01-13T10:41:25.086Z,94944.09
2019-01-13T10:42:28.589Z,94932.95
2019-01-13T10:43:32.153Z,94938.63
2019-01-13T10:44:35.615Z,94938.41
2019-01-13T10:45:39.054Z,94931.11
2019-01-13T10:46:42.667Z,94922.41
2019-01-13T10:47:46.215Z,94928.55
2019-01-13T10:48:49.641Z,94917.59
2019-01-13T10:49:53.064Z,94929.27
2019-01-13T10:50:56.557Z,94922.80
2019-01-13T10:52:00.139Z,94930.56
2019-01-13T10:53:03.720Z,94923.99
2019-01-13T10:54:09.171Z,94921.96
2019-01-13T10:55:12.810Z,94913.30
2019-01-13T10:56:16.331Z,94920.95
2019-01-13T10:57:19.756Z,94920.05
2019-01-13T10:58:23.184Z,94927.42
2019-01-13T10:59:26.600Z,94918.86
2019-01-13T11:00:34.257Z,94910.66
2019-01-13T11:01:37.849Z,94904.66
2019-01-13T11:02:41.349Z,94920.45
2019-01-13T11:03:44.985Z,94910.19
2019-01-13T11:04:48.374Z,94907.05
2019-01-13T11:05:51.886Z,94910.04
2019-01-13T11:06:55.392Z,94902.23
2019-01-13T11:07:58.957Z,94899.48
2019-01-13T11:09:04.024Z,94905.20
2019-01-13T11:10:10.596Z,94905.12
2019-01-13T11:11:14.045Z,94905.34
2019-01-13T11:12:17.477Z,94901.05
2019-01-13T11:13:20.948Z,94894.72
2019-01-13T11:14:24.335Z,94889.63
2019-01-13T11:15:27.883Z,94896.23
2019-01-13T11:16:31.470Z,94904.47
2019-01-13T11:17:34.909Z,94891.47
2019-01-13T11:18:38.345Z,94892.58
2019-01-13T11:19:41.768Z,94882.72
2019-01-13T11:20:45.190Z,94877.27
2019-01-13T11:21:48.710Z,94878.21
2019-01-13T11:22:52.404Z,94884.13
2019-01-13T11:23:55.961Z,94872.61
2019-01-13T11:24:59.469Z,94871.78
2019-01-13T11:26:03.229Z,94871.63
2019-01-13T11:27:06.658Z,94852.38
2019-01-13T11:28:10.223Z,94855.41
2019-01-13T11:29:13.715Z,94850.72
2019-01-13T11:30:22.590Z,94846.27
2019-01-13T11:31:26.192Z,94844.57
2019-01-13T11:32:29.631Z,94853.56
2019-01-13T11:33:33.049Z,94846.31
2019-01-13T11:34:36.485Z,94838.55
2019-01-13T11:35:40.064Z,94828.36
2019-01-13T11:36:43.499Z,94831.10
2019-01-13T11:37:47.356Z,94834.86
2019-01-13T11:38:50.768Z,94831.25
2019-01-13T11:39:54.188Z,94814.27
2019-01-13T11:40:57.724Z,94824.06
2019-01-13T11:42:01.201Z,94816.19
2019-01-13T11:43:04.772Z,94813.51
2019-01-13T11:44:08.262Z,94809.78
2019-01-13T11:45:12.426Z,94818.73
2019-01-13T11:46:15.883Z,94815.59
2019-01-13T11:47:19.320Z,94817.19
2019-01-13T11:48:22.754Z,94810.59
2019-01-13T11:49:26.253Z,94812.11
2019-01-13T11:50:29.835Z,94795.60
2019-01-13T11:51:33.256Z,94804.16
2019-01-13T11:52:36.775Z,94789.57
2019-01-13T11:53:40.207Z,94787.84
2019-01-13T11:54:43.639Z,94795.50
2019-01-13T11:55:47.068Z,94797.05
2019-01-13T11:56:50.499Z,94791.70
2019-01-13T11:57:53.914Z,94784.16
2019-01-13T11:58:57.413Z,94789.50
2019-01-13T12:00:00.933Z,94786.06
2019-01-13T12:01:04.798Z,94784.05
2019-01-13T12:02:08.535Z,94780.15
2019-01-13T12:03:16.820Z,94761.16
2019-01-13T12:04:17.378Z,94778.95
2019-01-13T12:05:21.057Z,94770.05
2019-01-13T12:06:24.557Z,94765.49
2019-01-13T12:07:28.997Z,94768.70
2019-01-13T12:08:32.460Z,94765.96
2019-01-13T12:09:35.890Z,94766.11
2019-01-13T12:10:39.380Z,94755.75
2019-01-13T12:11:42.939Z,94756.83
2019-01-13T12:12:46.596Z,94755.92
2019-01-13T12:13:50.092Z,94751.52
2019-01-13T12:14:53.946Z,94743.33
2019-01-13T12:15:57.478Z,94737.02
2019-01-13T12:17:00.938Z,94739.86
2019-01-13T12:18:04.623Z,94733.98
2019-01-13T12:19:08.044Z,94728.46
2019-01-13T12:20:14.608Z,94724.98
2019-01-13T12:21:18.226Z,94724.48
2019-01-13T12:22:21.746Z,94722.43
2019-01-13T12:23:25.233Z,94716.88
2019-01-13T12:24:28.664Z,94715.54
2019-01-13T12:25:32.085Z,94726.52
2019-01-13T12:26:35.615Z,94700.85
2019-01-13T12:27:39.127Z,94702.19